VCP115 VNLK-VNJP
Flight info
| Callsign | VCP115 |
|---|---|
| Flight time | 0h 35m |
| Altitude | 11000 |
| Route | CHURE/N0172F120 |
| Aircraft | DHC6/L-SDFGR/C |
Departure
| Time | 2025-03-24 21:50 |
|---|---|
| Airport | Tenzing-Hillary Airport (VNLK) |
Arrival
| Time | 2025-03-24 22:25 |
|---|---|
| Airport | Janakpur Airport (VNJP) |
| Time | Latitude | Longitude | Altitude | Speed | Heading |
|---|---|---|---|---|---|
| 2025-03-24 21:30 | 27.68747 | 86.73199 | 9423 ft | 0 kts | 39° |
| 2025-03-24 21:46 | 27.68748 | 86.73200 | 9421 ft | 0 kts | 31° |
| 2025-03-24 21:46 | 27.68753 | 86.73199 | 9422 ft | 1 kts | 334° |
| 2025-03-24 21:47 | 27.68780 | 86.73162 | 9422 ft | 5 kts | 9° |
| 2025-03-24 21:47 | 27.68795 | 86.73170 | 9420 ft | 3 kts | 234° |
| 2025-03-24 21:47 | 27.68708 | 86.73004 | 9351 ft | 61 kts | 238° |
| 2025-03-24 21:48 | 27.67581 | 86.71954 | 9353 ft | 130 kts | 206° |
| 2025-03-24 21:49 | 27.64841 | 86.71016 | 10147 ft | 135 kts | 192° |
| 2025-03-24 21:49 | 27.62764 | 86.70631 | 10318 ft | 160 kts | 190° |
| 2025-03-24 21:50 | 27.60538 | 86.70209 | 10567 ft | 163 kts | 190° |
| 2025-03-24 21:50 | 27.59418 | 86.70003 | 10735 ft | 164 kts | 190° |
| 2025-03-24 21:50 | 27.57170 | 86.69597 | 11088 ft | 163 kts | 189° |
| 2025-03-24 21:51 | 27.54926 | 86.69205 | 11323 ft | 163 kts | 190° |
| 2025-03-24 21:51 | 27.52954 | 86.68198 | 11575 ft | 159 kts | 237° |
| 2025-03-24 21:52 | 27.51826 | 86.66093 | 11875 ft | 157 kts | 244° |
| 2025-03-24 21:53 | 27.50215 | 86.62759 | 12094 ft | 167 kts | 244° |
| 2025-03-24 21:53 | 27.48746 | 86.60692 | 12184 ft | 174 kts | 225° |
| 2025-03-24 21:53 | 27.47816 | 86.59807 | 12156 ft | 177 kts | 221° |
| 2025-03-24 21:54 | 27.45810 | 86.58173 | 12111 ft | 178 kts | 214° |
| 2025-03-24 21:54 | 27.43661 | 86.56812 | 12100 ft | 176 kts | 213° |
| 2025-03-24 21:55 | 27.41556 | 86.55420 | 12173 ft | 178 kts | 213° |
| 2025-03-24 21:55 | 27.39412 | 86.54034 | 12122 ft | 177 kts | 213° |
| 2025-03-24 21:56 | 27.36215 | 86.51955 | 12100 ft | 175 kts | 213° |
| 2025-03-24 21:57 | 27.34103 | 86.50570 | 12083 ft | 176 kts | 213° |
| 2025-03-24 21:57 | 27.31991 | 86.49201 | 12077 ft | 175 kts | 213° |
| 2025-03-24 21:58 | 27.29886 | 86.47831 | 12060 ft | 174 kts | 213° |
| 2025-03-24 21:58 | 27.27791 | 86.46468 | 12070 ft | 174 kts | 213° |
| 2025-03-24 21:59 | 27.25700 | 86.45111 | 12063 ft | 175 kts | 213° |
| 2025-03-24 21:59 | 27.23945 | 86.43970 | 12061 ft | 173 kts | 213° |
| 2025-03-24 22:00 | 27.21510 | 86.42389 | 12054 ft | 174 kts | 213° |
| 2025-03-24 22:00 | 27.20815 | 86.41937 | 12060 ft | 174 kts | 213° |
| 2025-03-24 22:01 | 27.17664 | 86.39895 | 12046 ft | 173 kts | 214° |
| 2025-03-24 22:01 | 27.15574 | 86.38537 | 12050 ft | 174 kts | 213° |
| 2025-03-24 22:02 | 27.13470 | 86.37178 | 12045 ft | 174 kts | 214° |
| 2025-03-24 22:02 | 27.11378 | 86.35817 | 12053 ft | 175 kts | 213° |
| 2025-03-24 22:03 | 27.09253 | 86.34448 | 12029 ft | 175 kts | 214° |
| 2025-03-24 22:03 | 27.08203 | 86.33765 | 12040 ft | 174 kts | 213° |
| 2025-03-24 22:03 | 27.06093 | 86.32399 | 12036 ft | 175 kts | 213° |
| 2025-03-24 22:04 | 27.03976 | 86.31033 | 12025 ft | 175 kts | 213° |
| 2025-03-24 22:05 | 27.00822 | 86.28993 | 12010 ft | 173 kts | 213° |
| 2025-03-24 22:05 | 26.98754 | 86.27657 | 12021 ft | 173 kts | 213° |
| 2025-03-24 22:05 | 26.97709 | 86.26981 | 12012 ft | 174 kts | 213° |
| 2025-03-24 22:06 | 26.95612 | 86.25628 | 12007 ft | 174 kts | 213° |
| 2025-03-24 22:06 | 26.93518 | 86.24277 | 11999 ft | 173 kts | 213° |
| 2025-03-24 22:07 | 26.91425 | 86.22927 | 12001 ft | 174 kts | 213° |
| 2025-03-24 22:07 | 26.89324 | 86.21571 | 11989 ft | 174 kts | 213° |
| 2025-03-24 22:08 | 26.87221 | 86.20216 | 11980 ft | 173 kts | 213° |
| 2025-03-24 22:09 | 26.84087 | 86.18198 | 11981 ft | 174 kts | 213° |
| 2025-03-24 22:09 | 26.81989 | 86.16846 | 11978 ft | 174 kts | 213° |
| 2025-03-24 22:10 | 26.79894 | 86.15499 | 11976 ft | 174 kts | 213° |
| 2025-03-24 22:10 | 26.77798 | 86.14149 | 11972 ft | 174 kts | 212° |
| 2025-03-24 22:11 | 26.75712 | 86.12810 | 11972 ft | 174 kts | 212° |
| 2025-03-24 22:11 | 26.73611 | 86.11459 | 11971 ft | 174 kts | 212° |
| 2025-03-24 22:11 | 26.72561 | 86.10783 | 11961 ft | 174 kts | 212° |
| 2025-03-24 22:12 | 26.70904 | 86.09001 | 11963 ft | 166 kts | 256° |
| 2025-03-24 22:13 | 26.70769 | 86.05175 | 11962 ft | 166 kts | 272° |
| 2025-03-24 22:13 | 26.70767 | 86.02587 | 11963 ft | 166 kts | 274° |
| 2025-03-24 22:14 | 26.70807 | 86.00012 | 11964 ft | 167 kts | 271° |
| 2025-03-24 22:14 | 26.70798 | 85.98717 | 11964 ft | 166 kts | 274° |
| 2025-03-24 22:14 | 26.70853 | 85.96123 | 11965 ft | 167 kts | 272° |
| 2025-03-24 22:15 | 26.70868 | 85.93531 | 11970 ft | 167 kts | 273° |
| 2025-03-24 22:15 | 26.70893 | 85.90928 | 11965 ft | 167 kts | 272° |
| 2025-03-24 22:16 | 26.70933 | 85.87043 | 11965 ft | 167 kts | 272° |
| 2025-03-24 22:17 | 26.70957 | 85.84442 | 11969 ft | 167 kts | 272° |
| 2025-03-24 22:17 | 26.70432 | 85.81980 | 11955 ft | 170 kts | 228° |
| 2025-03-24 22:18 | 26.68470 | 85.81131 | 11450 ft | 173 kts | 168° |
| 2025-03-24 22:18 | 26.66730 | 85.83148 | 10047 ft | 196 kts | 103° |
| 2025-03-24 22:19 | 26.66412 | 85.86108 | 8550 ft | 190 kts | 92° |
| 2025-03-24 22:19 | 26.66266 | 85.89042 | 7087 ft | 188 kts | 91° |
| 2025-03-24 22:19 | 26.66208 | 85.90494 | 6379 ft | 186 kts | 91° |
| 2025-03-24 22:20 | 26.66112 | 85.93368 | 4895 ft | 183 kts | 91° |
| 2025-03-24 22:21 | 26.66298 | 85.97493 | 2757 ft | 173 kts | 61° |
| 2025-03-24 22:21 | 26.68121 | 85.98515 | 2255 ft | 132 kts | 5° |
| 2025-03-24 22:22 | 26.69598 | 85.98548 | 2075 ft | 108 kts | 0° |
| 2025-03-24 22:22 | 26.70429 | 85.98536 | 2139 ft | 123 kts | 360° |
| 2025-03-24 22:22 | 26.71556 | 85.97602 | 1384 ft | 103 kts | 269° |
| 2025-03-24 22:23 | 26.71091 | 85.96261 | 986 ft | 85 kts | 249° |
| 2025-03-24 22:23 | 26.70828 | 85.95039 | 671 ft | 80 kts | 265° |
| 2025-03-24 22:24 | 26.70867 | 85.93788 | 437 ft | 82 kts | 272° |
| 2025-03-24 22:25 | 26.70881 | 85.92233 | 243 ft | 16 kts | 276° |
| 2025-03-24 22:26 | 26.70894 | 85.92410 | 246 ft | 7 kts | 51° |
| 2025-03-24 22:26 | 26.70941 | 85.92402 | 243 ft | 7 kts | 343° |
| 2025-03-24 22:27 | 26.70948 | 85.92401 | 242 ft | 3 kts | 355° |
| 2025-03-24 22:27 | 26.71008 | 85.92425 | 241 ft | 3 kts | 253° |